sensor_id;sensor_type;location;lat;lon;timestamp;temperature;humidity
38090;DHT22;23904;52.322;10.232;2023-05-28T00:01:58;13.80;99.90
38090;DHT22;23904;52.322;10.232;2023-05-28T00:04:23;13.70;99.90
38090;DHT22;23904;52.322;10.232;2023-05-28T00:06:50;13.60;99.90
38090;DHT22;23904;52.322;10.232;2023-05-28T00:09:19;13.60;99.90
38090;DHT22;23904;52.322;10.232;2023-05-28T00:11:45;13.60;99.90
38090;DHT22;23904;52.322;10.232;2023-05-28T00:14:10;13.60;99.90
38090;DHT22;23904;52.322;10.232;2023-05-28T00:16:36;13.50;99.90
38090;DHT22;23904;52.322;10.232;2023-05-28T00:19:03;13.50;99.90
38090;DHT22;23904;52.322;10.232;2023-05-28T00:21:29;13.60;99.90
38090;DHT22;23904;52.322;10.232;2023-05-28T00:23:58;13.60;99.90
38090;DHT22;23904;52.322;10.232;2023-05-28T00:26:24;13.60;99.90
38090;DHT22;23904;52.322;10.232;2023-05-28T00:28:51;13.50;99.90
38090;DHT22;23904;52.322;10.232;2023-05-28T00:31:16;13.50;99.90
38090;DHT22;23904;52.322;10.232;2023-05-28T00:33:42;13.40;99.90
38090;DHT22;23904;52.322;10.232;2023-05-28T00:36:09;13.40;99.90
38090;DHT22;23904;52.322;10.232;2023-05-28T00:38:36;13.30;99.90
38090;DHT22;23904;52.322;10.232;2023-05-28T00:41:02;13.30;99.90
38090;DHT22;23904;52.322;10.232;2023-05-28T00:43:27;13.30;99.90
38090;DHT22;23904;52.322;10.232;2023-05-28T00:45:57;13.20;99.90
38090;DHT22;23904;52.322;10.232;2023-05-28T00:48:28;13.30;99.90
38090;DHT22;23904;52.322;10.232;2023-05-28T00:50:55;13.30;99.90
38090;DHT22;23904;52.322;10.232;2023-05-28T00:53:21;13.30;99.90
38090;DHT22;23904;52.322;10.232;2023-05-28T00:55:48;13.30;99.90
38090;DHT22;23904;52.322;10.232;2023-05-28T00:58:14;13.20;99.90
38090;DHT22;23904;52.322;10.232;2023-05-28T01:00:41;13.20;99.90
38090;DHT22;23904;52.322;10.232;2023-05-28T01:03:08;13.20;99.90
38090;DHT22;23904;52.322;10.232;2023-05-28T01:05:35;13.10;99.90
38090;DHT22;23904;52.322;10.232;2023-05-28T01:08:02;13.00;99.90
38090;DHT22;23904;52.322;10.232;2023-05-28T01:10:30;13.00;99.90
38090;DHT22;23904;52.322;10.232;2023-05-28T01:12:57;13.00;99.90
38090;DHT22;23904;52.322;10.232;2023-05-28T01:15:25;13.00;99.90
38090;DHT22;23904;52.322;10.232;2023-05-28T01:17:56;12.90;99.90
38090;DHT22;23904;52.322;10.232;2023-05-28T01:20:24;12.90;99.90
38090;DHT22;23904;52.322;10.232;2023-05-28T01:22:54;12.90;99.90
38090;DHT22;23904;52.322;10.232;2023-05-28T01:25:24;12.80;99.90
38090;DHT22;23904;52.322;10.232;2023-05-28T01:27:50;12.70;99.90
38090;DHT22;23904;52.322;10.232;2023-05-28T01:30:16;12.80;99.90
38090;DHT22;23904;52.322;10.232;2023-05-28T01:32:42;12.70;99.90
38090;DHT22;23904;52.322;10.232;2023-05-28T01:35:08;12.60;99.90
38090;DHT22;23904;52.322;10.232;2023-05-28T01:37:39;12.50;99.90
38090;DHT22;23904;52.322;10.232;2023-05-28T01:40:07;12.40;99.90
38090;DHT22;23904;52.322;10.232;2023-05-28T01:42:34;12.40;99.90
38090;DHT22;23904;52.322;10.232;2023-05-28T01:45:01;12.40;99.90
38090;DHT22;23904;52.322;10.232;2023-05-28T01:47:29;12.30;99.90
38090;DHT22;23904;52.322;10.232;2023-05-28T01:49:55;12.30;99.90
38090;DHT22;23904;52.322;10.232;2023-05-28T01:52:20;12.20;99.90
38090;DHT22;23904;52.322;10.232;2023-05-28T01:54:46;12.20;99.90
38090;DHT22;23904;52.322;10.232;2023-05-28T01:57:12;12.20;99.90
38090;DHT22;23904;52.322;10.232;2023-05-28T01:59:37;12.20;99.90
38090;DHT22;23904;52.322;10.232;2023-05-28T02:02:04;12.10;99.90
38090;DHT22;23904;52.322;10.232;2023-05-28T02:04:30;12.10;99.90
38090;DHT22;23904;52.322;10.232;2023-05-28T02:06:56;12.10;99.90
38090;DHT22;23904;52.322;10.232;2023-05-28T02:09:21;12.10;99.90
38090;DHT22;23904;52.322;10.232;2023-05-28T02:11:47;12.00;99.90
38090;DHT22;23904;52.322;10.232;2023-05-28T02:14:12;12.10;99.90
38090;DHT22;23904;52.322;10.232;2023-05-28T02:16:46;12.10;99.90
38090;DHT22;23904;52.322;10.232;2023-05-28T02:19:14;12.20;99.90
38090;DHT22;23904;52.322;10.232;2023-05-28T02:21:40;12.10;99.90
38090;DHT22;23904;52.322;10.232;2023-05-28T02:24:05;12.00;99.90
38090;DHT22;23904;52.322;10.232;2023-05-28T02:26:32;11.90;99.90
38090;DHT22;23904;52.322;10.232;2023-05-28T02:28:57;12.00;99.90
38090;DHT22;23904;52.322;10.232;2023-05-28T02:31:23;12.00;99.90
38090;DHT22;23904;52.322;10.232;2023-05-28T02:33:48;11.90;99.90
38090;DHT22;23904;52.322;10.232;2023-05-28T02:36:14;11.80;99.90
38090;DHT22;23904;52.322;10.232;2023-05-28T02:38:41;11.80;99.90
38090;DHT22;23904;52.322;10.232;2023-05-28T02:41:08;11.70;99.90
38090;DHT22;23904;52.322;10.232;2023-05-28T02:43:34;11.60;99.90
38090;DHT22;23904;52.322;10.232;2023-05-28T02:46:00;11.50;99.90
38090;DHT22;23904;52.322;10.232;2023-05-28T02:48:26;11.50;99.90
38090;DHT22;23904;52.322;10.232;2023-05-28T02:50:52;11.50;99.90
38090;DHT22;23904;52.322;10.232;2023-05-28T02:53:21;11.50;99.90
38090;DHT22;23904;52.322;10.232;2023-05-28T02:55:47;11.60;99.90
38090;DHT22;23904;52.322;10.232;2023-05-28T02:58:13;11.60;99.90
38090;DHT22;23904;52.322;10.232;2023-05-28T03:00:40;11.60;99.90
38090;DHT22;23904;52.322;10.232;2023-05-28T03:03:06;11.60;99.90
38090;DHT22;23904;52.322;10.232;2023-05-28T03:05:32;11.70;99.90
38090;DHT22;23904;52.322;10.232;2023-05-28T03:07:58;11.60;99.90
38090;DHT22;23904;52.322;10.232;2023-05-28T03:10:24;11.50;99.90
38090;DHT22;23904;52.322;10.232;2023-05-28T03:12:50;11.40;99.90
38090;DHT22;23904;52.322;10.232;2023-05-28T03:15:15;11.40;99.90
38090;DHT22;23904;52.322;10.232;2023-05-28T03:17:41;11.40;99.90
38090;DHT22;23904;52.322;10.232;2023-05-28T03:20:07;11.40;99.90
38090;DHT22;23904;52.322;10.232;2023-05-28T03:22:36;11.40;99.90
38090;DHT22;23904;52.322;10.232;2023-05-28T03:25:02;11.40;99.90
38090;DHT22;23904;52.322;10.232;2023-05-28T03:27:28;11.40;99.90
38090;DHT22;23904;52.322;10.232;2023-05-28T03:29:54;11.40;99.90
38090;DHT22;23904;52.322;10.232;2023-05-28T03:32:20;11.40;99.90
38090;DHT22;23904;52.322;10.232;2023-05-28T03:34:45;11.40;99.90
38090;DHT22;23904;52.322;10.232;2023-05-28T03:37:11;11.50;99.90
38090;DHT22;23904;52.322;10.232;2023-05-28T03:39:37;11.50;99.90
38090;DHT22;23904;52.322;10.232;2023-05-28T03:42:04;11.50;99.90
38090;DHT22;23904;52.322;10.232;2023-05-28T03:44:30;11.50;99.90
38090;DHT22;23904;52.322;10.232;2023-05-28T03:46:56;11.40;99.90
38090;DHT22;23904;52.322;10.232;2023-05-28T03:49:22;11.40;99.90
38090;DHT22;23904;52.322;10.232;2023-05-28T03:51:47;11.40;99.90
38090;DHT22;23904;52.322;10.232;2023-05-28T03:54:13;11.50;99.90
38090;DHT22;23904;52.322;10.232;2023-05-28T03:56:38;11.50;99.90
38090;DHT22;23904;52.322;10.232;2023-05-28T03:59:04;11.50;99.90
38090;DHT22;23904;52.322;10.232;2023-05-28T04:01:30;11.50;99.90
38090;DHT22;23904;52.322;10.232;2023-05-28T04:03:55;11.50;99.90
38090;DHT22;23904;52.322;10.232;2023-05-28T04:06:21;11.40;99.90
38090;DHT22;23904;52.322;10.232;2023-05-28T04:08:48;11.40;99.90
38090;DHT22;23904;52.322;10.232;2023-05-28T04:11:13;11.50;99.90
38090;DHT22;23904;52.322;10.232;2023-05-28T04:13:39;11.50;99.90
38090;DHT22;23904;52.322;10.232;2023-05-28T04:16:05;11.60;99.90
38090;DHT22;23904;52.322;10.232;2023-05-28T04:18:32;11.60;99.90
38090;DHT22;23904;52.322;10.232;2023-05-28T04:20:57;11.70;99.90
38090;DHT22;23904;52.322;10.232;2023-05-28T04:23:23;11.70;99.90
38090;DHT22;23904;52.322;10.232;2023-05-28T04:25:48;11.70;99.90
38090;DHT22;23904;52.322;10.232;2023-05-28T04:28:15;11.80;99.90
38090;DHT22;23904;52.322;10.232;2023-05-28T04:30:41;11.90;99.90
38090;DHT22;23904;52.322;10.232;2023-05-28T04:33:06;11.90;99.90
38090;DHT22;23904;52.322;10.232;2023-05-28T04:35:32;12.00;99.90
38090;DHT22;23904;52.322;10.232;2023-05-28T04:37:58;12.00;99.90
38090;DHT22;23904;52.322;10.232;2023-05-28T04:40:24;12.10;99.90
38090;DHT22;23904;52.322;10.232;2023-05-28T04:42:50;12.10;99.90
38090;DHT22;23904;52.322;10.232;2023-05-28T04:45:19;12.10;99.90
38090;DHT22;23904;52.322;10.232;2023-05-28T04:47:44;12.10;99.90
38090;DHT22;23904;52.322;10.232;2023-05-28T04:50:10;12.10;99.90
38090;DHT22;23904;52.322;10.232;2023-05-28T04:52:35;12.10;99.90
38090;DHT22;23904;52.322;10.232;2023-05-28T04:55:02;12.10;99.90
38090;DHT22;23904;52.322;10.232;2023-05-28T04:57:31;12.20;99.90
38090;DHT22;23904;52.322;10.232;2023-05-28T04:59:57;12.20;99.90
38090;DHT22;23904;52.322;10.232;2023-05-28T05:02:24;12.20;99.90
38090;DHT22;23904;52.322;10.232;2023-05-28T05:04:49;12.20;99.90
38090;DHT22;23904;52.322;10.232;2023-05-28T05:07:16;12.30;99.90
38090;DHT22;23904;52.322;10.232;2023-05-28T05:09:41;12.30;99.90
38090;DHT22;23904;52.322;10.232;2023-05-28T05:12:08;12.30;99.90
38090;DHT22;23904;52.322;10.232;2023-05-28T05:14:34;12.40;99.90
38090;DHT22;23904;52.322;10.232;2023-05-28T05:17:00;12.40;99.90
38090;DHT22;23904;52.322;10.232;2023-05-28T05:19:28;12.60;99.90
38090;DHT22;23904;52.322;10.232;2023-05-28T05:21:53;12.60;99.90
38090;DHT22;23904;52.322;10.232;2023-05-28T05:24:19;12.70;99.90
38090;DHT22;23904;52.322;10.232;2023-05-28T05:26:45;12.70;99.90
38090;DHT22;23904;52.322;10.232;2023-05-28T05:29:10;12.70;99.90
38090;DHT22;23904;52.322;10.232;2023-05-28T05:31:36;12.70;99.90
38090;DHT22;23904;52.322;10.232;2023-05-28T05:34:01;12.80;99.90
38090;DHT22;23904;52.322;10.232;2023-05-28T05:36:27;12.90;99.90
38090;DHT22;23904;52.322;10.232;2023-05-28T05:38:52;13.00;99.90
38090;DHT22;23904;52.322;10.232;2023-05-28T05:41:18;13.10;99.90
38090;DHT22;23904;52.322;10.232;2023-05-28T05:43:43;13.20;99.90
38090;DHT22;23904;52.322;10.232;2023-05-28T05:46:09;13.30;99.90
38090;DHT22;23904;52.322;10.232;2023-05-28T05:48:35;13.30;99.90
38090;DHT22;23904;52.322;10.232;2023-05-28T05:51:00;13.40;99.90
38090;DHT22;23904;52.322;10.232;2023-05-28T05:53:28;13.50;99.90
38090;DHT22;23904;52.322;10.232;2023-05-28T05:55:53;13.60;99.90
38090;DHT22;23904;52.322;10.232;2023-05-28T05:58:19;13.60;99.90
38090;DHT22;23904;52.322;10.232;2023-05-28T06:00:45;13.70;99.90
38090;DHT22;23904;52.322;10.232;2023-05-28T06:03:12;13.80;99.90
38090;DHT22;23904;52.322;10.232;2023-05-28T06:05:38;13.90;99.90
38090;DHT22;23904;52.322;10.232;2023-05-28T06:08:03;14.00;99.90
38090;DHT22;23904;52.322;10.232;2023-05-28T06:10:29;14.00;99.90
38090;DHT22;23904;52.322;10.232;2023-05-28T06:12:57;14.10;99.90
38090;DHT22;23904;52.322;10.232;2023-05-28T06:15:29;14.20;99.90
38090;DHT22;23904;52.322;10.232;2023-05-28T06:17:57;14.40;99.90
38090;DHT22;23904;52.322;10.232;2023-05-28T06:20:23;14.40;99.90
38090;DHT22;23904;52.322;10.232;2023-05-28T06:22:49;14.50;99.90
38090;DHT22;23904;52.322;10.232;2023-05-28T06:25:15;14.60;99.90
38090;DHT22;23904;52.322;10.232;2023-05-28T06:27:41;14.70;99.90
38090;DHT22;23904;52.322;10.232;2023-05-28T06:30:07;14.80;99.90
38090;DHT22;23904;52.322;10.232;2023-05-28T06:32:34;14.80;99.90
38090;DHT22;23904;52.322;10.232;2023-05-28T06:35:00;14.90;99.90
38090;DHT22;23904;52.322;10.232;2023-05-28T06:37:26;15.00;99.90
38090;DHT22;23904;52.322;10.232;2023-05-28T06:39:52;15.10;99.90
38090;DHT22;23904;52.322;10.232;2023-05-28T06:42:17;15.20;99.90
38090;DHT22;23904;52.322;10.232;2023-05-28T06:44:43;15.30;99.90
38090;DHT22;23904;52.322;10.232;2023-05-28T06:47:08;15.40;99.90
38090;DHT22;23904;52.322;10.232;2023-05-28T06:49:34;15.50;99.90
38090;DHT22;23904;52.322;10.232;2023-05-28T06:52:00;15.50;99.90
38090;DHT22;23904;52.322;10.232;2023-05-28T06:54:26;15.60;99.90
38090;DHT22;23904;52.322;10.232;2023-05-28T06:56:51;15.70;99.90
38090;DHT22;23904;52.322;10.232;2023-05-28T06:59:17;15.80;99.90
38090;DHT22;23904;52.322;10.232;2023-05-28T07:01:42;16.00;99.90
38090;DHT22;23904;52.322;10.232;2023-05-28T07:04:08;16.00;99.90
38090;DHT22;23904;52.322;10.232;2023-05-28T07:06:33;16.10;99.90
38090;DHT22;23904;52.322;10.232;2023-05-28T07:08:59;16.30;99.90
38090;DHT22;23904;52.322;10.232;2023-05-28T07:11:25;16.40;99.90
38090;DHT22;23904;52.322;10.232;2023-05-28T07:13:52;16.50;99.90
38090;DHT22;23904;52.322;10.232;2023-05-28T07:16:20;16.50;99.90
38090;DHT22;23904;52.322;10.232;2023-05-28T07:18:46;16.60;99.90
38090;DHT22;23904;52.322;10.232;2023-05-28T07:21:12;16.70;99.90
38090;DHT22;23904;52.322;10.232;2023-05-28T07:23:37;16.80;99.90
38090;DHT22;23904;52.322;10.232;2023-05-28T07:26:03;16.90;99.90
38090;DHT22;23904;52.322;10.232;2023-05-28T07:28:29;16.90;99.60
38090;DHT22;23904;52.322;10.232;2023-05-28T07:30:55;17.10;99.20
38090;DHT22;23904;52.322;10.232;2023-05-28T07:33:20;17.20;98.80
38090;DHT22;23904;52.322;10.232;2023-05-28T07:35:46;17.30;98.60
38090;DHT22;23904;52.322;10.232;2023-05-28T07:38:11;17.40;98.70
38090;DHT22;23904;52.322;10.232;2023-05-28T07:40:39;17.50;98.60
38090;DHT22;23904;52.322;10.232;2023-05-28T07:43:06;17.60;98.60
38090;DHT22;23904;52.322;10.232;2023-05-28T07:45:31;17.70;99.00
38090;DHT22;23904;52.322;10.232;2023-05-28T07:47:57;17.90;97.90
38090;DHT22;23904;52.322;10.232;2023-05-28T07:50:22;18.00;96.80
38090;DHT22;23904;52.322;10.232;2023-05-28T07:52:48;18.00;96.60
38090;DHT22;23904;52.322;10.232;2023-05-28T07:55:14;18.20;96.40
38090;DHT22;23904;52.322;10.232;2023-05-28T07:57:40;18.20;96.00
38090;DHT22;23904;52.322;10.232;2023-05-28T08:00:06;18.40;96.00
38090;DHT22;23904;52.322;10.232;2023-05-28T08:02:35;18.60;95.90
38090;DHT22;23904;52.322;10.232;2023-05-28T08:05:01;18.70;93.80
38090;DHT22;23904;52.322;10.232;2023-05-28T08:07:27;18.80;93.00
38090;DHT22;23904;52.322;10.232;2023-05-28T08:09:53;19.10;93.20
38090;DHT22;23904;52.322;10.232;2023-05-28T08:12:19;19.20;93.70
38090;DHT22;23904;52.322;10.232;2023-05-28T08:14:45;19.40;92.60
38090;DHT22;23904;52.322;10.232;2023-05-28T08:17:10;19.50;92.10
38090;DHT22;23904;52.322;10.232;2023-05-28T08:19:36;19.70;91.50
38090;DHT22;23904;52.322;10.232;2023-05-28T08:22:01;19.80;90.70
38090;DHT22;23904;52.322;10.232;2023-05-28T08:24:28;19.90;91.20
38090;DHT22;23904;52.322;10.232;2023-05-28T08:26:53;20.00;90.90
38090;DHT22;23904;52.322;10.232;2023-05-28T08:29:19;20.20;87.90
38090;DHT22;23904;52.322;10.232;2023-05-28T08:31:44;20.40;89.00
38090;DHT22;23904;52.322;10.232;2023-05-28T08:34:10;20.60;88.00
38090;DHT22;23904;52.322;10.232;2023-05-28T08:36:36;20.90;85.90
38090;DHT22;23904;52.322;10.232;2023-05-28T08:39:02;21.20;82.80
38090;DHT22;23904;52.322;10.232;2023-05-28T08:41:28;21.50;80.50
38090;DHT22;23904;52.322;10.232;2023-05-28T08:43:54;22.00;73.20
38090;DHT22;23904;52.322;10.232;2023-05-28T08:46:19;22.50;72.40
38090;DHT22;23904;52.322;10.232;2023-05-28T08:48:45;23.20;64.10
38090;DHT22;23904;52.322;10.232;2023-05-28T08:51:12;23.60;63.80
38090;DHT22;23904;52.322;10.232;2023-05-28T08:53:46;24.60;60.30
38090;DHT22;23904;52.322;10.232;2023-05-28T08:56:12;25.70;58.90
38090;DHT22;23904;52.322;10.232;2023-05-28T08:58:38;26.90;53.90
38090;DHT22;23904;52.322;10.232;2023-05-28T09:01:05;27.40;52.20
38090;DHT22;23904;52.322;10.232;2023-05-28T09:03:32;28.60;51.00
38090;DHT22;23904;52.322;10.232;2023-05-28T09:05:59;29.00;48.80
38090;DHT22;23904;52.322;10.232;2023-05-28T09:08:26;29.30;48.40
38090;DHT22;23904;52.322;10.232;2023-05-28T09:10:51;29.40;46.80
38090;DHT22;23904;52.322;10.232;2023-05-28T09:13:20;29.90;46.10
38090;DHT22;23904;52.322;10.232;2023-05-28T09:15:52;30.50;44.20
38090;DHT22;23904;52.322;10.232;2023-05-28T09:18:22;31.30;42.60
38090;DHT22;23904;52.322;10.232;2023-05-28T09:20:48;31.80;41.40
38090;DHT22;23904;52.322;10.232;2023-05-28T09:23:16;31.80;40.80
38090;DHT22;23904;52.322;10.232;2023-05-28T09:25:43;31.30;40.40
38090;DHT22;23904;52.322;10.232;2023-05-28T09:28:13;31.00;40.20
38090;DHT22;23904;52.322;10.232;2023-05-28T09:30:39;30.80;40.90
38090;DHT22;23904;52.322;10.232;2023-05-28T09:33:06;31.40;40.50
38090;DHT22;23904;52.322;10.232;2023-05-28T09:35:33;31.70;39.80
38090;DHT22;23904;52.322;10.232;2023-05-28T09:38:07;31.80;38.00
38090;DHT22;23904;52.322;10.232;2023-05-28T09:40:40;31.60;38.10
38090;DHT22;23904;52.322;10.232;2023-05-28T09:43:07;32.20;38.80
38090;DHT22;23904;52.322;10.232;2023-05-28T09:45:34;31.80;38.00
38090;DHT22;23904;52.322;10.232;2023-05-28T09:48:00;31.60;39.20
38090;DHT22;23904;52.322;10.232;2023-05-28T09:50:26;32.70;37.40
38090;DHT22;23904;52.322;10.232;2023-05-28T09:52:59;32.60;37.20
38090;DHT22;23904;52.322;10.232;2023-05-28T09:55:27;32.10;38.00
38090;DHT22;23904;52.322;10.232;2023-05-28T09:58:01;32.20;37.80
38090;DHT22;23904;52.322;10.232;2023-05-28T10:00:35;31.50;38.90
38090;DHT22;23904;52.322;10.232;2023-05-28T10:03:12;32.00;39.00
38090;DHT22;23904;52.322;10.232;2023-05-28T10:05:44;33.00;37.40
38090;DHT22;23904;52.322;10.232;2023-05-28T10:08:16;33.60;36.70
38090;DHT22;23904;52.322;10.232;2023-05-28T10:10:42;34.20;35.60
38090;DHT22;23904;52.322;10.232;2023-05-28T10:13:12;34.70;34.60
38090;DHT22;23904;52.322;10.232;2023-05-28T10:15:38;34.70;33.40
38090;DHT22;23904;52.322;10.232;2023-05-28T10:18:05;34.80;34.40
38090;DHT22;23904;52.322;10.232;2023-05-28T10:20:32;34.90;34.60
38090;DHT22;23904;52.322;10.232;2023-05-28T10:22:58;33.80;35.10
38090;DHT22;23904;52.322;10.232;2023-05-28T10:25:24;33.80;35.80
38090;DHT22;23904;52.322;10.232;2023-05-28T10:27:49;34.50;34.90
38090;DHT22;23904;52.322;10.232;2023-05-28T10:30:37;34.40;34.70
38090;DHT22;23904;52.322;10.232;2023-05-28T10:33:15;33.70;35.30
38090;DHT22;23904;52.322;10.232;2023-05-28T10:35:55;33.80;35.00
38090;DHT22;23904;52.322;10.232;2023-05-28T10:38:23;33.90;35.30
38090;DHT22;23904;52.322;10.232;2023-05-28T10:40:49;34.80;34.20
38090;DHT22;23904;52.322;10.232;2023-05-28T10:43:39;34.70;33.40
38090;DHT22;23904;52.322;10.232;2023-05-28T10:46:12;35.20;32.30
38090;DHT22;23904;52.322;10.232;2023-05-28T10:49:14;34.80;32.60
38090;DHT22;23904;52.322;10.232;2023-05-28T10:52:02;34.70;32.70
38090;DHT22;23904;52.322;10.232;2023-05-28T10:57:13;34.40;34.00
38090;DHT22;23904;52.322;10.232;2023-05-28T10:59:52;35.60;32.70
38090;DHT22;23904;52.322;10.232;2023-05-28T11:02:27;34.80;32.90
38090;DHT22;23904;52.322;10.232;2023-05-28T11:05:00;34.70;33.30
38090;DHT22;23904;52.322;10.232;2023-05-28T11:07:46;35.10;33.40
38090;DHT22;23904;52.322;10.232;2023-05-28T11:10:15;35.90;33.20
38090;DHT22;23904;52.322;10.232;2023-05-28T11:12:42;36.20;32.60
38090;DHT22;23904;52.322;10.232;2023-05-28T11:15:12;35.90;31.40
38090;DHT22;23904;52.322;10.232;2023-05-28T11:17:43;34.80;32.40
38090;DHT22;23904;52.322;10.232;2023-05-28T11:20:23;33.20;34.30
38090;DHT22;23904;52.322;10.232;2023-05-28T11:22:51;32.00;36.30
38090;DHT22;23904;52.322;10.232;2023-05-28T11:25:17;31.20;37.30
38090;DHT22;23904;52.322;10.232;2023-05-28T11:27:43;29.80;38.30
38090;DHT22;23904;52.322;10.232;2023-05-28T11:30:13;28.90;40.70
38090;DHT22;23904;52.322;10.232;2023-05-28T11:32:40;28.30;41.90
38090;DHT22;23904;52.322;10.232;2023-05-28T11:35:09;27.80;42.20
38090;DHT22;23904;52.322;10.232;2023-05-28T11:37:36;27.20;42.90
38090;DHT22;23904;52.322;10.232;2023-05-28T11:40:06;27.10;43.50
38090;DHT22;23904;52.322;10.232;2023-05-28T11:42:36;27.10;44.00
38090;DHT22;23904;52.322;10.232;2023-05-28T11:45:03;27.60;44.30
38090;DHT22;23904;52.322;10.232;2023-05-28T11:47:32;28.20;43.00
38090;DHT22;23904;52.322;10.232;2023-05-28T11:50:05;28.80;42.30
38090;DHT22;23904;52.322;10.232;2023-05-28T11:52:31;30.40;40.00
38090;DHT22;23904;52.322;10.232;2023-05-28T11:54:58;31.30;38.00
38090;DHT22;23904;52.322;10.232;2023-05-28T11:57:29;32.00;37.00
38090;DHT22;23904;52.322;10.232;2023-05-28T12:02:25;33.20;35.90
38090;DHT22;23904;52.322;10.232;2023-05-28T12:04:59;33.60;35.60
38090;DHT22;23904;52.322;10.232;2023-05-28T12:07:35;33.60;36.10
38090;DHT22;23904;52.322;10.232;2023-05-28T12:10:09;33.70;35.90
38090;DHT22;23904;52.322;10.232;2023-05-28T12:12:41;33.60;35.00
38090;DHT22;23904;52.322;10.232;2023-05-28T12:15:07;32.60;35.80
38090;DHT22;23904;52.322;10.232;2023-05-28T12:17:35;32.10;36.80
38090;DHT22;23904;52.322;10.232;2023-05-28T12:22:38;32.40;36.20
38090;DHT22;23904;52.322;10.232;2023-05-28T12:25:05;33.00;36.10
38090;DHT22;23904;52.322;10.232;2023-05-28T12:27:32;32.80;36.30
38090;DHT22;23904;52.322;10.232;2023-05-28T12:29:57;32.70;35.80
38090;DHT22;23904;52.322;10.232;2023-05-28T12:32:23;33.60;36.60
38090;DHT22;23904;52.322;10.232;2023-05-28T12:34:49;33.00;35.70
38090;DHT22;23904;52.322;10.232;2023-05-28T12:37:17;32.60;36.30
38090;DHT22;23904;52.322;10.232;2023-05-28T12:39:43;32.70;36.30
38090;DHT22;23904;52.322;10.232;2023-05-28T12:42:09;33.00;36.40
38090;DHT22;23904;52.322;10.232;2023-05-28T12:44:35;32.70;35.90
38090;DHT22;23904;52.322;10.232;2023-05-28T12:47:01;32.40;36.60
38090;DHT22;23904;52.322;10.232;2023-05-28T12:49:26;31.80;37.20
38090;DHT22;23904;52.322;10.232;2023-05-28T12:51:52;31.30;36.50
38090;DHT22;23904;52.322;10.232;2023-05-28T12:54:17;30.10;38.70
38090;DHT22;23904;52.322;10.232;2023-05-28T12:56:43;29.60;40.00
38090;DHT22;23904;52.322;10.232;2023-05-28T12:59:19;29.40;39.90
38090;DHT22;23904;52.322;10.232;2023-05-28T13:01:52;28.70;40.50
38090;DHT22;23904;52.322;10.232;2023-05-28T13:04:18;28.80;41.80
38090;DHT22;23904;52.322;10.232;2023-05-28T13:06:44;28.80;41.90
38090;DHT22;23904;52.322;10.232;2023-05-28T13:09:10;28.40;42.50
38090;DHT22;23904;52.322;10.232;2023-05-28T13:11:41;28.30;42.80
38090;DHT22;23904;52.322;10.232;2023-05-28T13:14:07;27.90;43.30
38090;DHT22;23904;52.322;10.232;2023-05-28T13:16:33;27.80;43.10
38090;DHT22;23904;52.322;10.232;2023-05-28T13:19:00;27.80;43.40
38090;DHT22;23904;52.322;10.232;2023-05-28T13:21:28;27.60;43.80
38090;DHT22;23904;52.322;10.232;2023-05-28T13:23:54;27.60;44.30
38090;DHT22;23904;52.322;10.232;2023-05-28T13:26:20;27.30;43.60
38090;DHT22;23904;52.322;10.232;2023-05-28T13:28:47;27.40;43.50
38090;DHT22;23904;52.322;10.232;2023-05-28T13:31:13;27.70;43.30
38090;DHT22;23904;52.322;10.232;2023-05-28T13:33:38;27.40;43.20
38090;DHT22;23904;52.322;10.232;2023-05-28T13:36:04;27.50;43.20
38090;DHT22;23904;52.322;10.232;2023-05-28T13:38:32;27.70;43.30
38090;DHT22;23904;52.322;10.232;2023-05-28T13:40:59;27.30;43.20
38090;DHT22;23904;52.322;10.232;2023-05-28T13:43:25;27.30;44.40
38090;DHT22;23904;52.322;10.232;2023-05-28T13:45:51;27.00;44.10
38090;DHT22;23904;52.322;10.232;2023-05-28T13:48:16;27.00;44.70
38090;DHT22;23904;52.322;10.232;2023-05-28T13:50:42;27.10;43.20
38090;DHT22;23904;52.322;10.232;2023-05-28T13:53:08;26.90;43.30
38090;DHT22;23904;52.322;10.232;2023-05-28T13:55:34;26.90;43.70
38090;DHT22;23904;52.322;10.232;2023-05-28T13:57:59;26.90;44.70
38090;DHT22;23904;52.322;10.232;2023-05-28T14:00:25;27.00;43.90
38090;DHT22;23904;52.322;10.232;2023-05-28T14:02:50;27.10;42.50
38090;DHT22;23904;52.322;10.232;2023-05-28T14:05:16;27.00;43.20
38090;DHT22;23904;52.322;10.232;2023-05-28T14:07:41;26.90;43.60
38090;DHT22;23904;52.322;10.232;2023-05-28T14:10:07;26.70;45.10
38090;DHT22;23904;52.322;10.232;2023-05-28T14:12:33;26.90;45.00
38090;DHT22;23904;52.322;10.232;2023-05-28T14:14:59;27.10;43.90
38090;DHT22;23904;52.322;10.232;2023-05-28T14:17:26;27.00;43.40
38090;DHT22;23904;52.322;10.232;2023-05-28T14:19:51;26.70;44.40
38090;DHT22;23904;52.322;10.232;2023-05-28T14:22:17;26.50;44.60
38090;DHT22;23904;52.322;10.232;2023-05-28T14:24:42;26.60;44.40
38090;DHT22;23904;52.322;10.232;2023-05-28T14:27:08;26.70;44.60
38090;DHT22;23904;52.322;10.232;2023-05-28T14:29:35;26.60;45.00
38090;DHT22;23904;52.322;10.232;2023-05-28T14:32:00;26.50;45.00
38090;DHT22;23904;52.322;10.232;2023-05-28T14:34:28;26.50;44.00
38090;DHT22;23904;52.322;10.232;2023-05-28T14:36:53;26.40;44.20
38090;DHT22;23904;52.322;10.232;2023-05-28T14:39:19;26.60;44.80
38090;DHT22;23904;52.322;10.232;2023-05-28T14:41:44;26.70;44.80
38090;DHT22;23904;52.322;10.232;2023-05-28T14:44:10;26.70;44.90
38090;DHT22;23904;52.322;10.232;2023-05-28T14:46:35;26.70;43.60
38090;DHT22;23904;52.322;10.232;2023-05-28T14:49:01;26.40;44.70
38090;DHT22;23904;52.322;10.232;2023-05-28T14:51:27;26.30;44.50
38090;DHT22;23904;52.322;10.232;2023-05-28T14:53:53;26.30;44.70
38090;DHT22;23904;52.322;10.232;2023-05-28T14:56:18;26.20;45.00
38090;DHT22;23904;52.322;10.232;2023-05-28T14:58:44;26.20;45.00
38090;DHT22;23904;52.322;10.232;2023-05-28T15:01:10;26.10;45.20
38090;DHT22;23904;52.322;10.232;2023-05-28T15:03:35;26.10;45.90
38090;DHT22;23904;52.322;10.232;2023-05-28T15:06:01;26.10;46.00
38090;DHT22;23904;52.322;10.232;2023-05-28T15:08:26;26.20;45.90
38090;DHT22;23904;52.322;10.232;2023-05-28T15:10:52;26.10;44.90
38090;DHT22;23904;52.322;10.232;2023-05-28T15:13:18;26.10;45.30
38090;DHT22;23904;52.322;10.232;2023-05-28T15:15:44;26.00;45.50
38090;DHT22;23904;52.322;10.232;2023-05-28T15:18:09;25.70;45.10
38090;DHT22;23904;52.322;10.232;2023-05-28T15:20:35;25.60;46.10
38090;DHT22;23904;52.322;10.232;2023-05-28T15:23:01;25.80;46.60